Terminal Aerodrome Forecast
Issued by NWS El Paso, TX

Home | Current Version | Previous Version | Text Only | Print | Product List | Glossary On
Versions: 1 2 3 4 5 6 7 8 9 10 11 12
000
FTUS44 KEPZ 250548
TAFELP
TAF
KELP 250548Z 2506/2606 27020G32KT P6SM FEW150 BKN250
     FM251600 25035G45KT P6SM BKN250
     FM260000 27040G50KT P6SM OVC250=

USA.gov is the U.S. government's official web portal to all federal, state and local government web resources and services.